sensor_id;sensor_type;location;lat;lon;timestamp;P1;durP1;ratioP1;P2;durP2;ratioP2
8102;SDS011;4094;49.948;11.574;2023-03-07T00:00:38;22.67;;;20.60;;
8102;SDS011;4094;49.948;11.574;2023-03-07T00:03:08;23.40;;;21.30;;
8102;SDS011;4094;49.948;11.574;2023-03-07T00:05:41;23.40;;;21.20;;
8102;SDS011;4094;49.948;11.574;2023-03-07T00:08:10;22.53;;;20.43;;
8102;SDS011;4094;49.948;11.574;2023-03-07T00:10:39;22.17;;;20.27;;
8102;SDS011;4094;49.948;11.574;2023-03-07T00:13:08;23.03;;;20.93;;
8102;SDS011;4094;49.948;11.574;2023-03-07T00:15:37;22.60;;;20.70;;
8102;SDS011;4094;49.948;11.574;2023-03-07T00:18:07;21.70;;;19.70;;
8102;SDS011;4094;49.948;11.574;2023-03-07T00:20:36;22.30;;;20.40;;
8102;SDS011;4094;49.948;11.574;2023-03-07T00:23:07;22.90;;;20.50;;
8102;SDS011;4094;49.948;11.574;2023-03-07T00:25:36;22.20;;;20.20;;
8102;SDS011;4094;49.948;11.574;2023-03-07T00:28:05;21.60;;;19.70;;
8102;SDS011;4094;49.948;11.574;2023-03-07T00:30:35;21.83;;;20.00;;
8102;SDS011;4094;49.948;11.574;2023-03-07T00:33:05;21.23;;;19.33;;
8102;SDS011;4094;49.948;11.574;2023-03-07T00:35:34;21.50;;;19.60;;
8102;SDS011;4094;49.948;11.574;2023-03-07T00:38:04;21.63;;;19.73;;
8102;SDS011;4094;49.948;11.574;2023-03-07T00:40:34;21.83;;;19.87;;
8102;SDS011;4094;49.948;11.574;2023-03-07T00:43:03;22.03;;;19.97;;
8102;SDS011;4094;49.948;11.574;2023-03-07T00:45:33;21.80;;;19.70;;
8102;SDS011;4094;49.948;11.574;2023-03-07T00:48:02;21.37;;;19.47;;
8102;SDS011;4094;49.948;11.574;2023-03-07T00:50:32;21.13;;;19.33;;
8102;SDS011;4094;49.948;11.574;2023-03-07T00:53:02;21.73;;;19.80;;
8102;SDS011;4094;49.948;11.574;2023-03-07T00:55:31;21.77;;;19.87;;
8102;SDS011;4094;49.948;11.574;2023-03-07T00:58:02;20.87;;;18.87;;
8102;SDS011;4094;49.948;11.574;2023-03-07T01:00:31;21.07;;;19.27;;
8102;SDS011;4094;49.948;11.574;2023-03-07T01:03:00;20.00;;;18.37;;
8102;SDS011;4094;49.948;11.574;2023-03-07T01:05:30;21.47;;;19.63;;
8102;SDS011;4094;49.948;11.574;2023-03-07T01:07:59;20.53;;;18.63;;
8102;SDS011;4094;49.948;11.574;2023-03-07T01:10:28;21.70;;;19.70;;
8102;SDS011;4094;49.948;11.574;2023-03-07T01:12:59;22.17;;;20.13;;
8102;SDS011;4094;49.948;11.574;2023-03-07T01:15:30;21.83;;;19.90;;
8102;SDS011;4094;49.948;11.574;2023-03-07T01:18:00;20.47;;;18.67;;
8102;SDS011;4094;49.948;11.574;2023-03-07T01:20:29;21.97;;;20.03;;
8102;SDS011;4094;49.948;11.574;2023-03-07T01:22:59;20.97;;;18.97;;
8102;SDS011;4094;49.948;11.574;2023-03-07T01:25:29;20.77;;;18.97;;
8102;SDS011;4094;49.948;11.574;2023-03-07T01:27:58;22.33;;;20.33;;
8102;SDS011;4094;49.948;11.574;2023-03-07T01:30:30;20.73;;;18.93;;
8102;SDS011;4094;49.948;11.574;2023-03-07T01:33:00;21.80;;;19.80;;
8102;SDS011;4094;49.948;11.574;2023-03-07T01:35:34;22.37;;;20.20;;
8102;SDS011;4094;49.948;11.574;2023-03-07T01:38:05;21.30;;;19.50;;
8102;SDS011;4094;49.948;11.574;2023-03-07T01:40:36;22.30;;;20.17;;
8102;SDS011;4094;49.948;11.574;2023-03-07T01:43:22;22.07;;;19.87;;
8102;SDS011;4094;49.948;11.574;2023-03-07T01:49:20;22.10;;;20.10;;
8102;SDS011;4094;49.948;11.574;2023-03-07T01:51:58;22.50;;;20.47;;
8102;SDS011;4094;49.948;11.574;2023-03-07T01:54:33;23.13;;;21.03;;
8102;SDS011;4094;49.948;11.574;2023-03-07T01:57:05;23.73;;;21.37;;
8102;SDS011;4094;49.948;11.574;2023-03-07T01:59:35;23.37;;;21.23;;
8102;SDS011;4094;49.948;11.574;2023-03-07T02:02:10;23.73;;;21.50;;
8102;SDS011;4094;49.948;11.574;2023-03-07T02:04:45;23.90;;;21.70;;
8102;SDS011;4094;49.948;11.574;2023-03-07T02:07:18;23.50;;;21.40;;
8102;SDS011;4094;49.948;11.574;2023-03-07T02:09:50;23.67;;;21.50;;
8102;SDS011;4094;49.948;11.574;2023-03-07T02:12:21;24.93;;;22.63;;
8102;SDS011;4094;49.948;11.574;2023-03-07T02:14:51;23.10;;;21.03;;
8102;SDS011;4094;49.948;11.574;2023-03-07T02:17:20;24.00;;;21.70;;
8102;SDS011;4094;49.948;11.574;2023-03-07T02:19:56;24.63;;;22.33;;
8102;SDS011;4094;49.948;11.574;2023-03-07T02:22:36;23.43;;;21.23;;
8102;SDS011;4094;49.948;11.574;2023-03-07T02:25:09;24.10;;;21.90;;
8102;SDS011;4094;49.948;11.574;2023-03-07T02:27:43;23.50;;;21.40;;
8102;SDS011;4094;49.948;11.574;2023-03-07T02:30:14;23.33;;;21.13;;
8102;SDS011;4094;49.948;11.574;2023-03-07T02:32:44;23.67;;;21.47;;
8102;SDS011;4094;49.948;11.574;2023-03-07T02:35:14;25.47;;;23.03;;
8102;SDS011;4094;49.948;11.574;2023-03-07T02:37:50;23.80;;;21.70;;
8102;SDS011;4094;49.948;11.574;2023-03-07T02:40:22;24.27;;;22.00;;
8102;SDS011;4094;49.948;11.574;2023-03-07T02:42:56;24.00;;;21.73;;
8102;SDS011;4094;49.948;11.574;2023-03-07T02:45:28;24.40;;;22.03;;
8102;SDS011;4094;49.948;11.574;2023-03-07T02:47:56;25.23;;;22.93;;
8102;SDS011;4094;49.948;11.574;2023-03-07T02:50:27;24.07;;;21.80;;
8102;SDS011;4094;49.948;11.574;2023-03-07T02:52:56;25.30;;;22.70;;
8102;SDS011;4094;49.948;11.574;2023-03-07T02:55:25;23.20;;;21.03;;
8102;SDS011;4094;49.948;11.574;2023-03-07T02:58:02;24.23;;;21.97;;
8102;SDS011;4094;49.948;11.574;2023-03-07T03:00:31;25.57;;;23.17;;
8102;SDS011;4094;49.948;11.574;2023-03-07T03:03:01;24.43;;;22.20;;
8102;SDS011;4094;49.948;11.574;2023-03-07T03:05:30;25.17;;;22.77;;
8102;SDS011;4094;49.948;11.574;2023-03-07T03:07:59;24.93;;;22.53;;
8102;SDS011;4094;49.948;11.574;2023-03-07T03:10:29;26.17;;;23.77;;
8102;SDS011;4094;49.948;11.574;2023-03-07T03:12:59;24.63;;;22.33;;
8102;SDS011;4094;49.948;11.574;2023-03-07T03:15:30;25.57;;;23.17;;
8102;SDS011;4094;49.948;11.574;2023-03-07T03:17:59;25.27;;;22.87;;
8102;SDS011;4094;49.948;11.574;2023-03-07T03:20:29;26.13;;;23.67;;
8102;SDS011;4094;49.948;11.574;2023-03-07T03:22:58;25.13;;;22.83;;
8102;SDS011;4094;49.948;11.574;2023-03-07T03:25:28;25.53;;;23.13;;
8102;SDS011;4094;49.948;11.574;2023-03-07T03:27:57;25.30;;;22.90;;
8102;SDS011;4094;49.948;11.574;2023-03-07T03:30:29;24.77;;;22.57;;
8102;SDS011;4094;49.948;11.574;2023-03-07T03:33:00;24.80;;;22.53;;
8102;SDS011;4094;49.948;11.574;2023-03-07T03:35:30;25.30;;;22.90;;
8102;SDS011;4094;49.948;11.574;2023-03-07T03:38:01;26.80;;;24.27;;
8102;SDS011;4094;49.948;11.574;2023-03-07T03:40:30;25.07;;;22.70;;
8102;SDS011;4094;49.948;11.574;2023-03-07T03:42:59;24.60;;;22.17;;
8102;SDS011;4094;49.948;11.574;2023-03-07T03:45:29;24.57;;;22.30;;
8102;SDS011;4094;49.948;11.574;2023-03-07T03:47:58;25.40;;;23.00;;
8102;SDS011;4094;49.948;11.574;2023-03-07T03:50:27;24.40;;;22.07;;
8102;SDS011;4094;49.948;11.574;2023-03-07T03:52:56;23.93;;;21.80;;
8102;SDS011;4094;49.948;11.574;2023-03-07T03:55:26;25.63;;;23.13;;
8102;SDS011;4094;49.948;11.574;2023-03-07T03:57:55;25.07;;;22.67;;
8102;SDS011;4094;49.948;11.574;2023-03-07T04:00:26;26.33;;;23.83;;
8102;SDS011;4094;49.948;11.574;2023-03-07T04:02:56;25.07;;;22.60;;
8102;SDS011;4094;49.948;11.574;2023-03-07T04:05:25;25.67;;;23.27;;
8102;SDS011;4094;49.948;11.574;2023-03-07T04:07:54;24.43;;;22.03;;
8102;SDS011;4094;49.948;11.574;2023-03-07T04:10:24;26.87;;;24.33;;
8102;SDS011;4094;49.948;11.574;2023-03-07T04:12:53;23.43;;;21.43;;
8102;SDS011;4094;49.948;11.574;2023-03-07T04:15:22;23.83;;;21.73;;
8102;SDS011;4094;49.948;11.574;2023-03-07T04:17:51;24.47;;;22.27;;
8102;SDS011;4094;49.948;11.574;2023-03-07T04:20:21;23.33;;;21.23;;
8102;SDS011;4094;49.948;11.574;2023-03-07T04:22:50;23.57;;;21.37;;
8102;SDS011;4094;49.948;11.574;2023-03-07T04:25:19;23.13;;;21.03;;
8102;SDS011;4094;49.948;11.574;2023-03-07T04:27:49;23.20;;;21.10;;
8102;SDS011;4094;49.948;11.574;2023-03-07T04:30:18;23.70;;;21.60;;
8102;SDS011;4094;49.948;11.574;2023-03-07T04:32:47;24.10;;;21.90;;
8102;SDS011;4094;49.948;11.574;2023-03-07T04:35:16;24.80;;;22.57;;
8102;SDS011;4094;49.948;11.574;2023-03-07T04:37:47;23.30;;;21.30;;
8102;SDS011;4094;49.948;11.574;2023-03-07T04:40:17;24.10;;;21.80;;
8102;SDS011;4094;49.948;11.574;2023-03-07T04:42:46;22.80;;;20.83;;
8102;SDS011;4094;49.948;11.574;2023-03-07T04:45:15;23.97;;;21.80;;
8102;SDS011;4094;49.948;11.574;2023-03-07T04:47:44;23.37;;;21.23;;
8102;SDS011;4094;49.948;11.574;2023-03-07T04:50:14;23.00;;;21.00;;
8102;SDS011;4094;49.948;11.574;2023-03-07T04:52:46;23.13;;;21.03;;
8102;SDS011;4094;49.948;11.574;2023-03-07T04:55:17;22.43;;;20.40;;
8102;SDS011;4094;49.948;11.574;2023-03-07T04:57:46;22.60;;;20.60;;
8102;SDS011;4094;49.948;11.574;2023-03-07T05:00:18;23.03;;;20.93;;
8102;SDS011;4094;49.948;11.574;2023-03-07T05:02:49;22.17;;;20.17;;
8102;SDS011;4094;49.948;11.574;2023-03-07T05:05:18;22.70;;;20.60;;
8102;SDS011;4094;49.948;11.574;2023-03-07T05:07:50;22.30;;;20.30;;
8102;SDS011;4094;49.948;11.574;2023-03-07T05:10:19;21.67;;;19.80;;
8102;SDS011;4094;49.948;11.574;2023-03-07T05:12:48;21.90;;;19.90;;
8102;SDS011;4094;49.948;11.574;2023-03-07T05:15:17;22.23;;;20.37;;
8102;SDS011;4094;49.948;11.574;2023-03-07T05:17:47;21.13;;;19.30;;
8102;SDS011;4094;49.948;11.574;2023-03-07T05:20:16;21.83;;;19.93;;
8102;SDS011;4094;49.948;11.574;2023-03-07T05:22:46;21.23;;;19.33;;
8102;SDS011;4094;49.948;11.574;2023-03-07T05:25:17;21.20;;;19.33;;
8102;SDS011;4094;49.948;11.574;2023-03-07T05:27:47;22.03;;;20.07;;
8102;SDS011;4094;49.948;11.574;2023-03-07T05:30:16;22.23;;;20.37;;
8102;SDS011;4094;49.948;11.574;2023-03-07T05:32:47;22.00;;;20.00;;
8102;SDS011;4094;49.948;11.574;2023-03-07T05:35:18;22.10;;;20.23;;
8102;SDS011;4094;49.948;11.574;2023-03-07T05:37:52;20.40;;;18.70;;
8102;SDS011;4094;49.948;11.574;2023-03-07T05:40:23;21.70;;;19.80;;
8102;SDS011;4094;49.948;11.574;2023-03-07T05:42:52;21.20;;;19.40;;
8102;SDS011;4094;49.948;11.574;2023-03-07T05:45:22;21.97;;;20.03;;
8102;SDS011;4094;49.948;11.574;2023-03-07T05:47:51;20.40;;;18.70;;
8102;SDS011;4094;49.948;11.574;2023-03-07T05:50:20;22.37;;;20.37;;
8102;SDS011;4094;49.948;11.574;2023-03-07T05:52:50;21.83;;;19.87;;
8102;SDS011;4094;49.948;11.574;2023-03-07T05:55:20;22.30;;;20.40;;
8102;SDS011;4094;49.948;11.574;2023-03-07T05:57:50;21.80;;;19.80;;
8102;SDS011;4094;49.948;11.574;2023-03-07T06:00:20;20.60;;;18.50;;
8102;SDS011;4094;49.948;11.574;2023-03-07T06:03:00;22.03;;;20.07;;
8102;SDS011;4094;49.948;11.574;2023-03-07T06:05:30;21.47;;;19.57;;
8102;SDS011;4094;49.948;11.574;2023-03-07T06:08:01;22.57;;;20.40;;
8102;SDS011;4094;49.948;11.574;2023-03-07T06:10:30;21.13;;;19.13;;
8102;SDS011;4094;49.948;11.574;2023-03-07T06:13:03;21.00;;;19.20;;
8102;SDS011;4094;49.948;11.574;2023-03-07T06:15:33;20.53;;;18.53;;
8102;SDS011;4094;49.948;11.574;2023-03-07T06:18:05;21.80;;;20.00;;
8102;SDS011;4094;49.948;11.574;2023-03-07T06:20:34;21.77;;;19.87;;
8102;SDS011;4094;49.948;11.574;2023-03-07T06:23:03;21.67;;;19.63;;
8102;SDS011;4094;49.948;11.574;2023-03-07T06:25:33;20.43;;;18.73;;
8102;SDS011;4094;49.948;11.574;2023-03-07T06:28:04;20.83;;;18.93;;
8102;SDS011;4094;49.948;11.574;2023-03-07T06:30:33;20.57;;;18.77;;
8102;SDS011;4094;49.948;11.574;2023-03-07T06:33:03;20.80;;;19.00;;
8102;SDS011;4094;49.948;11.574;2023-03-07T06:35:32;20.60;;;18.87;;
8102;SDS011;4094;49.948;11.574;2023-03-07T06:38:01;20.67;;;18.97;;
8102;SDS011;4094;49.948;11.574;2023-03-07T06:40:30;20.67;;;18.97;;
8102;SDS011;4094;49.948;11.574;2023-03-07T06:42:59;19.13;;;17.53;;
8102;SDS011;4094;49.948;11.574;2023-03-07T06:45:30;20.10;;;18.40;;
8102;SDS011;4094;49.948;11.574;2023-03-07T06:48:00;19.57;;;17.77;;
8102;SDS011;4094;49.948;11.574;2023-03-07T06:50:29;19.57;;;17.97;;
8102;SDS011;4094;49.948;11.574;2023-03-07T06:53:03;19.87;;;18.27;;
8102;SDS011;4094;49.948;11.574;2023-03-07T06:55:32;19.87;;;18.23;;
8102;SDS011;4094;49.948;11.574;2023-03-07T06:58:01;18.90;;;17.30;;
8102;SDS011;4094;49.948;11.574;2023-03-07T07:00:32;19.80;;;18.07;;
8102;SDS011;4094;49.948;11.574;2023-03-07T07:03:01;19.73;;;18.13;;
8102;SDS011;4094;49.948;11.574;2023-03-07T07:05:30;19.27;;;17.77;;
8102;SDS011;4094;49.948;11.574;2023-03-07T07:08:00;19.70;;;18.10;;
8102;SDS011;4094;49.948;11.574;2023-03-07T07:10:29;18.97;;;17.30;;
8102;SDS011;4094;49.948;11.574;2023-03-07T07:12:58;19.97;;;18.23;;
8102;SDS011;4094;49.948;11.574;2023-03-07T07:15:27;19.67;;;17.97;;
8102;SDS011;4094;49.948;11.574;2023-03-07T07:17:58;20.07;;;18.27;;
8102;SDS011;4094;49.948;11.574;2023-03-07T07:20:27;19.53;;;17.87;;
8102;SDS011;4094;49.948;11.574;2023-03-07T07:22:56;18.93;;;17.40;;
8102;SDS011;4094;49.948;11.574;2023-03-07T07:25:25;18.40;;;16.90;;
8102;SDS011;4094;49.948;11.574;2023-03-07T07:27:55;19.10;;;17.57;;
8102;SDS011;4094;49.948;11.574;2023-03-07T07:30:24;19.27;;;17.63;;
8102;SDS011;4094;49.948;11.574;2023-03-07T07:32:53;19.63;;;17.93;;
8102;SDS011;4094;49.948;11.574;2023-03-07T07:35:24;19.30;;;17.63;;
8102;SDS011;4094;49.948;11.574;2023-03-07T07:37:54;19.93;;;18.40;;
8102;SDS011;4094;49.948;11.574;2023-03-07T07:40:23;19.97;;;18.40;;
8102;SDS011;4094;49.948;11.574;2023-03-07T07:42:53;19.60;;;18.00;;
8102;SDS011;4094;49.948;11.574;2023-03-07T07:45:51;19.80;;;18.20;;
8102;SDS011;4094;49.948;11.574;2023-03-07T07:48:21;19.27;;;17.77;;
8102;SDS011;4094;49.948;11.574;2023-03-07T07:50:52;20.23;;;18.43;;
8102;SDS011;4094;49.948;11.574;2023-03-07T07:53:21;19.40;;;17.80;;
8102;SDS011;4094;49.948;11.574;2023-03-07T07:55:50;18.80;;;17.30;;
8102;SDS011;4094;49.948;11.574;2023-03-07T07:58:20;19.90;;;18.20;;
8102;SDS011;4094;49.948;11.574;2023-03-07T08:00:49;20.00;;;18.30;;
8102;SDS011;4094;49.948;11.574;2023-03-07T08:03:19;19.57;;;17.97;;
8102;SDS011;4094;49.948;11.574;2023-03-07T08:05:48;19.17;;;17.57;;
8102;SDS011;4094;49.948;11.574;2023-03-07T08:08:19;19.43;;;17.77;;
8102;SDS011;4094;49.948;11.574;2023-03-07T08:10:48;20.03;;;18.23;;
8102;SDS011;4094;49.948;11.574;2023-03-07T08:13:18;19.73;;;18.13;;
8102;SDS011;4094;49.948;11.574;2023-03-07T08:15:47;19.93;;;18.23;;
8102;SDS011;4094;49.948;11.574;2023-03-07T08:18:16;19.83;;;18.13;;
8102;SDS011;4094;49.948;11.574;2023-03-07T08:20:45;20.07;;;18.33;;
8102;SDS011;4094;49.948;11.574;2023-03-07T08:23:15;19.60;;;17.90;;
8102;SDS011;4094;49.948;11.574;2023-03-07T08:25:45;20.43;;;18.73;;
8102;SDS011;4094;49.948;11.574;2023-03-07T08:28:16;20.17;;;18.57;;
8102;SDS011;4094;49.948;11.574;2023-03-07T08:30:45;19.67;;;18.17;;
8102;SDS011;4094;49.948;11.574;2023-03-07T08:33:15;19.50;;;17.90;;
8102;SDS011;4094;49.948;11.574;2023-03-07T08:35:44;20.30;;;18.57;;
8102;SDS011;4094;49.948;11.574;2023-03-07T08:38:13;20.57;;;18.87;;
8102;SDS011;4094;49.948;11.574;2023-03-07T08:40:42;20.00;;;18.43;;
8102;SDS011;4094;49.948;11.574;2023-03-07T08:43:13;19.33;;;17.83;;
8102;SDS011;4094;49.948;11.574;2023-03-07T08:45:42;19.93;;;18.23;;
8102;SDS011;4094;49.948;11.574;2023-03-07T08:48:11;20.30;;;18.60;;
8102;SDS011;4094;49.948;11.574;2023-03-07T08:50:40;19.70;;;18.10;;
8102;SDS011;4094;49.948;11.574;2023-03-07T08:53:09;20.07;;;18.37;;
8102;SDS011;4094;49.948;11.574;2023-03-07T08:55:38;21.03;;;19.30;;
8102;SDS011;4094;49.948;11.574;2023-03-07T08:58:07;20.07;;;18.33;;
8102;SDS011;4094;49.948;11.574;2023-03-07T09:00:38;20.33;;;18.63;;
8102;SDS011;4094;49.948;11.574;2023-03-07T09:03:08;19.20;;;17.60;;
8102;SDS011;4094;49.948;11.574;2023-03-07T09:05:37;20.03;;;18.37;;
8102;SDS011;4094;49.948;11.574;2023-03-07T09:08:06;20.20;;;18.50;;
8102;SDS011;4094;49.948;11.574;2023-03-07T09:10:36;20.13;;;18.43;;
8102;SDS011;4094;49.948;11.574;2023-03-07T09:13:05;20.60;;;18.70;;
8102;SDS011;4094;49.948;11.574;2023-03-07T09:15:36;20.73;;;19.03;;
8102;SDS011;4094;49.948;11.574;2023-03-07T09:18:07;20.03;;;18.23;;
8102;SDS011;4094;49.948;11.574;2023-03-07T09:20:36;20.47;;;18.70;;
8102;SDS011;4094;49.948;11.574;2023-03-07T09:23:06;20.23;;;18.53;;
8102;SDS011;4094;49.948;11.574;2023-03-07T09:25:36;19.67;;;17.63;;
8102;SDS011;4094;49.948;11.574;2023-03-07T09:28:07;19.10;;;17.43;;
8102;SDS011;4094;49.948;11.574;2023-03-07T09:30:36;20.43;;;18.63;;
8102;SDS011;4094;49.948;11.574;2023-03-07T09:33:07;18.77;;;17.27;;
8102;SDS011;4094;49.948;11.574;2023-03-07T09:35:36;20.00;;;18.40;;
8102;SDS011;4094;49.948;11.574;2023-03-07T09:38:06;20.13;;;18.50;;
8102;SDS011;4094;49.948;11.574;2023-03-07T09:40:35;19.73;;;17.90;;
8102;SDS011;4094;49.948;11.574;2023-03-07T09:43:07;19.27;;;17.67;;
8102;SDS011;4094;49.948;11.574;2023-03-07T09:45:56;19.00;;;17.50;;
8102;SDS011;4094;49.948;11.574;2023-03-07T09:48:38;19.00;;;17.33;;
8102;SDS011;4094;49.948;11.574;2023-03-07T09:51:31;19.33;;;17.63;;
8102;SDS011;4094;49.948;11.574;2023-03-07T09:54:08;18.07;;;16.47;;
8102;SDS011;4094;49.948;11.574;2023-03-07T09:56:41;19.67;;;18.00;;
8102;SDS011;4094;49.948;11.574;2023-03-07T09:59:15;18.70;;;16.97;;
8102;SDS011;4094;49.948;11.574;2023-03-07T10:01:51;17.60;;;16.10;;
8102;SDS011;4094;49.948;11.574;2023-03-07T10:04:31;18.13;;;16.43;;
8102;SDS011;4094;49.948;11.574;2023-03-07T10:07:09;19.07;;;17.27;;
8102;SDS011;4094;49.948;11.574;2023-03-07T10:09:41;18.93;;;17.33;;
8102;SDS011;4094;49.948;11.574;2023-03-07T10:12:17;18.10;;;16.53;;
8102;SDS011;4094;49.948;11.574;2023-03-07T10:15:04;17.37;;;15.87;;
8102;SDS011;4094;49.948;11.574;2023-03-07T10:17:47;17.53;;;16.03;;
8102;SDS011;4094;49.948;11.574;2023-03-07T10:20:30;17.87;;;16.47;;
8102;SDS011;4094;49.948;11.574;2023-03-07T10:23:13;16.93;;;15.63;;
8102;SDS011;4094;49.948;11.574;2023-03-07T10:25:56;17.43;;;15.87;;
8102;SDS011;4094;49.948;11.574;2023-03-07T10:28:30;17.23;;;15.77;;
8102;SDS011;4094;49.948;11.574;2023-03-07T10:31:17;18.20;;;16.60;;
8102;SDS011;4094;49.948;11.574;2023-03-07T10:33:52;16.87;;;15.43;;
8102;SDS011;4094;49.948;11.574;2023-03-07T10:36:27;17.50;;;15.97;;
8102;SDS011;4094;49.948;11.574;2023-03-07T10:39:02;16.40;;;15.10;;
8102;SDS011;4094;49.948;11.574;2023-03-07T10:41:39;17.27;;;15.70;;
8102;SDS011;4094;49.948;11.574;2023-03-07T10:44:09;16.73;;;15.43;;
8102;SDS011;4094;49.948;11.574;2023-03-07T10:46:45;16.93;;;15.37;;
8102;SDS011;4094;49.948;11.574;2023-03-07T10:49:22;15.40;;;14.20;;
8102;SDS011;4094;49.948;11.574;2023-03-07T10:51:58;15.87;;;14.67;;
8102;SDS011;4094;49.948;11.574;2023-03-07T10:54:31;16.03;;;14.73;;
8102;SDS011;4094;49.948;11.574;2023-03-07T10:57:07;14.80;;;13.70;;
8102;SDS011;4094;49.948;11.574;2023-03-07T10:59:39;15.37;;;14.07;;
8102;SDS011;4094;49.948;11.574;2023-03-07T11:02:25;15.50;;;14.20;;
8102;SDS011;4094;49.948;11.574;2023-03-07T11:04:59;14.60;;;13.50;;
8102;SDS011;4094;49.948;11.574;2023-03-07T11:07:32;14.90;;;13.67;;
8102;SDS011;4094;49.948;11.574;2023-03-07T11:10:22;13.43;;;12.43;;
8102;SDS011;4094;49.948;11.574;2023-03-07T11:12:54;14.17;;;13.07;;
8102;SDS011;4094;49.948;11.574;2023-03-07T11:15:26;14.20;;;13.10;;
8102;SDS011;4094;49.948;11.574;2023-03-07T11:17:55;14.20;;;13.10;;
8102;SDS011;4094;49.948;11.574;2023-03-07T11:20:25;13.97;;;12.67;;
8102;SDS011;4094;49.948;11.574;2023-03-07T11:23:12;14.30;;;13.10;;
8102;SDS011;4094;49.948;11.574;2023-03-07T11:25:45;13.97;;;12.80;;
8102;SDS011;4094;49.948;11.574;2023-03-07T11:28:25;14.43;;;13.13;;
8102;SDS011;4094;49.948;11.574;2023-03-07T11:31:00;13.90;;;12.73;;
8102;SDS011;4094;49.948;11.574;2023-03-07T11:33:41;13.67;;;12.57;;
8102;SDS011;4094;49.948;11.574;2023-03-07T11:36:27;13.03;;;11.80;;
8102;SDS011;4094;49.948;11.574;2023-03-07T11:39:02;13.13;;;11.97;;
8102;SDS011;4094;49.948;11.574;2023-03-07T11:41:39;13.47;;;12.43;;
8102;SDS011;4094;49.948;11.574;2023-03-07T11:44:22;13.17;;;12.07;;
8102;SDS011;4094;49.948;11.574;2023-03-07T11:47:03;12.97;;;11.97;;
8102;SDS011;4094;49.948;11.574;2023-03-07T11:49:52;12.30;;;11.30;;
8102;SDS011;4094;49.948;11.574;2023-03-07T11:52:37;14.03;;;12.90;;
8102;SDS011;4094;49.948;11.574;2023-03-07T11:55:22;13.63;;;12.53;;
8102;SDS011;4094;49.948;11.574;2023-03-07T11:57:59;13.47;;;12.37;;
8102;SDS011;4094;49.948;11.574;2023-03-07T12:00:46;12.90;;;12.00;;
8102;SDS011;4094;49.948;11.574;2023-03-07T12:03:29;13.00;;;12.00;;
8102;SDS011;4094;49.948;11.574;2023-03-07T12:06:25;13.20;;;12.10;;
8102;SDS011;4094;49.948;11.574;2023-03-07T12:09:04;12.67;;;11.77;;
8102;SDS011;4094;49.948;11.574;2023-03-07T12:11:51;12.17;;;11.10;;
8102;SDS011;4094;49.948;11.574;2023-03-07T12:14:36;13.33;;;12.30;;
8102;SDS011;4094;49.948;11.574;2023-03-07T12:17:20;12.90;;;11.90;;
8102;SDS011;4094;49.948;11.574;2023-03-07T12:22:56;12.40;;;11.40;;
8102;SDS011;4094;49.948;11.574;2023-03-07T12:25:35;12.57;;;11.67;;
8102;SDS011;4094;49.948;11.574;2023-03-07T12:28:10;12.27;;;11.27;;
8102;SDS011;4094;49.948;11.574;2023-03-07T12:30:50;11.97;;;11.07;;
8102;SDS011;4094;49.948;11.574;2023-03-07T12:33:26;12.97;;;11.87;;
8102;SDS011;4094;49.948;11.574;2023-03-07T12:36:09;12.30;;;11.43;;
8102;SDS011;4094;49.948;11.574;2023-03-07T12:38:49;13.30;;;12.20;;
8102;SDS011;4094;49.948;11.574;2023-03-07T12:41:25;11.97;;;11.07;;
8102;SDS011;4094;49.948;11.574;2023-03-07T12:44:14;12.73;;;11.83;;
8102;SDS011;4094;49.948;11.574;2023-03-07T12:46:52;12.27;;;11.27;;
8102;SDS011;4094;49.948;11.574;2023-03-07T12:49:28;12.20;;;11.30;;
8102;SDS011;4094;49.948;11.574;2023-03-07T12:52:20;12.43;;;11.50;;
8102;SDS011;4094;49.948;11.574;2023-03-07T12:54:57;12.27;;;11.37;;
8102;SDS011;4094;49.948;11.574;2023-03-07T12:57:32;12.20;;;11.20;;
8102;SDS011;4094;49.948;11.574;2023-03-07T13:00:07;12.60;;;11.70;;
8102;SDS011;4094;49.948;11.574;2023-03-07T13:02:40;12.37;;;11.47;;
8102;SDS011;4094;49.948;11.574;2023-03-07T13:05:15;11.80;;;11.00;;
8102;SDS011;4094;49.948;11.574;2023-03-07T13:07:47;11.70;;;10.90;;
8102;SDS011;4094;49.948;11.574;2023-03-07T13:10:18;12.20;;;11.20;;
8102;SDS011;4094;49.948;11.574;2023-03-07T13:12:49;12.10;;;11.30;;
8102;SDS011;4094;49.948;11.574;2023-03-07T13:18:35;11.60;;;10.80;;
8102;SDS011;4094;49.948;11.574;2023-03-07T13:21:08;11.97;;;11.10;;
8102;SDS011;4094;49.948;11.574;2023-03-07T13:23:39;12.00;;;11.10;;
8102;SDS011;4094;49.948;11.574;2023-03-07T13:26:11;12.33;;;11.43;;
8102;SDS011;4094;49.948;11.574;2023-03-07T13:28:42;11.70;;;10.90;;
8102;SDS011;4094;49.948;11.574;2023-03-07T13:31:24;12.13;;;11.33;;
8102;SDS011;4094;49.948;11.574;2023-03-07T13:40:23;11.80;;;11.00;;
8102;SDS011;4094;49.948;11.574;2023-03-07T13:42:55;11.30;;;10.53;;
8102;SDS011;4094;49.948;11.574;2023-03-07T13:51:19;11.50;;;10.70;;
8102;SDS011;4094;49.948;11.574;2023-03-07T13:53:48;11.60;;;10.80;;
8102;SDS011;4094;49.948;11.574;2023-03-07T13:56:20;12.53;;;11.50;;
8102;SDS011;4094;49.948;11.574;2023-03-07T13:58:53;11.03;;;10.23;;
8102;SDS011;4094;49.948;11.574;2023-03-07T14:01:26;10.73;;;9.90;;
8102;SDS011;4094;49.948;11.574;2023-03-07T14:04:01;11.33;;;10.33;;
8102;SDS011;4094;49.948;11.574;2023-03-07T14:06:37;10.83;;;10.03;;
8102;SDS011;4094;49.948;11.574;2023-03-07T14:09:11;11.07;;;10.27;;
8102;SDS011;4094;49.948;11.574;2023-03-07T14:11:44;11.07;;;10.23;;
8102;SDS011;4094;49.948;11.574;2023-03-07T14:14:28;10.53;;;9.73;;
8102;SDS011;4094;49.948;11.574;2023-03-07T14:17:16;10.90;;;10.10;;
8102;SDS011;4094;49.948;11.574;2023-03-07T14:19:53;10.87;;;10.17;;
8102;SDS011;4094;49.948;11.574;2023-03-07T14:22:34;10.43;;;9.63;;
8102;SDS011;4094;49.948;11.574;2023-03-07T14:25:16;10.93;;;10.00;;
8102;SDS011;4094;49.948;11.574;2023-03-07T14:27:54;10.60;;;9.80;;
8102;SDS011;4094;49.948;11.574;2023-03-07T14:30:26;11.00;;;10.30;;
8102;SDS011;4094;49.948;11.574;2023-03-07T14:32:57;10.57;;;9.77;;
8102;SDS011;4094;49.948;11.574;2023-03-07T14:35:31;10.90;;;10.10;;
8102;SDS011;4094;49.948;11.574;2023-03-07T14:38:08;10.10;;;9.30;;
8102;SDS011;4094;49.948;11.574;2023-03-07T14:40:48;11.17;;;10.30;;
8102;SDS011;4094;49.948;11.574;2023-03-07T14:43:31;10.67;;;9.87;;
8102;SDS011;4094;49.948;11.574;2023-03-07T14:46:11;10.93;;;10.13;;
8102;SDS011;4094;49.948;11.574;2023-03-07T14:48:54;10.83;;;9.93;;
8102;SDS011;4094;49.948;11.574;2023-03-07T14:51:43;11.13;;;10.40;;
8102;SDS011;4094;49.948;11.574;2023-03-07T14:54:15;11.53;;;10.53;;
8102;SDS011;4094;49.948;11.574;2023-03-07T14:56:48;10.50;;;9.80;;
8102;SDS011;4094;49.948;11.574;2023-03-07T14:59:19;11.40;;;10.50;;
8102;SDS011;4094;49.948;11.574;2023-03-07T15:01:56;11.37;;;10.47;;
8102;SDS011;4094;49.948;11.574;2023-03-07T15:04:27;10.40;;;9.70;;
8102;SDS011;4094;49.948;11.574;2023-03-07T15:06:58;11.57;;;10.47;;
8102;SDS011;4094;49.948;11.574;2023-03-07T15:09:30;10.20;;;9.50;;
8102;SDS011;4094;49.948;11.574;2023-03-07T15:12:02;11.30;;;10.20;;
8102;SDS011;4094;49.948;11.574;2023-03-07T15:14:37;11.13;;;10.23;;
8102;SDS011;4094;49.948;11.574;2023-03-07T15:17:13;10.77;;;9.97;;
8102;SDS011;4094;49.948;11.574;2023-03-07T15:19:47;11.40;;;10.43;;
8102;SDS011;4094;49.948;11.574;2023-03-07T15:22:22;10.93;;;10.13;;
8102;SDS011;4094;49.948;11.574;2023-03-07T15:24:55;10.60;;;9.90;;
8102;SDS011;4094;49.948;11.574;2023-03-07T15:27:24;11.70;;;10.80;;
8102;SDS011;4094;49.948;11.574;2023-03-07T15:29:55;10.73;;;9.93;;